Tilford, South Dakota
Current Conditions -  °F | °C
As of 12:58 AM on Saturday 29 Nov 2014 (Local Time) from KRCA Reporting Station
Clear Clear  
Wind Chill: 13°   Ceiling: Unl
Heat Index: 13°   Visibility: 10mi
Dew Point: -8°   Wind: 15mph
Humidity: 23%   Direction: 270°W
Pressure: 29.43"   Gusts: NA
Location:  44.2544°N, 103.292°W
Report Text: KRCA 290758Z AUTO 27013KT 10SM CLR 13/M08 A2943 RMK AO2 SLP956 T01321079 $
Loading
Personal Weather Stations






























Interactive Weather Map New forecast layout! Learn more

10-Day Weather Forecast

Advertisements
Track Severe Weather on mobile